KBCB/BCB METAR and TAF weather

Enter ICAO airport designator
Station Type Date Time Source
KBCB METAR 2019/04/18 20:10 UTC NOAA

KBCB 182010Z AUTO 18011G18KT 150V210 10SM CLR 25/10 A2994 RMK AO2 T02470096


Station Type Date Time Source
KBCB Decoded METAR 2019/04/18 20:10 UTC NOAA

Virginia Tech Airport, VA, United States (KBCB) 37-13N 080-25W
Apr 18, 2019 - 04:10 PM EDT / 2019.04.18 2010 UTC
Wind: from the S (180 degrees) at 13 MPH (11 KT) gusting to 21 MPH (18 KT) (direction variable):0
Visibility: 10 mile(s):0
Sky conditions: clear
Temperature: 76.5 F (24.7 C)
Dew Point: 49.3 F (9.6 C)
Relative Humidity: 38%
Pressure (altimeter): 29.94 in. Hg (1013 hPa)
ob: KBCB 182010Z AUTO 18011G18KT 150V210 10SM CLR 25/10 A2994 RMK AO2 T02470096
cycle: 20

Station Type Date Time Source
KBCB TAF 2019/04/18 18:22 UTC NOAA

TAF KBCB 181720Z 1818/1918 18010G18KT P6SM SKC
FM190300 15010KT P6SM BKN080
FM190600 17009KT P6SM BKN030
FM191000 17010KT P6SM OVC009
FM191300 18009KT 3SM SHRA OVC019

Example: see airport list